PWSweather.com
Personal Weather Stations
Station Observations
LENIOP
Colle Di Val D ElsaIT 53034

Colle Di Val D ElsaIT 53034

Lat: 43.26, Lon: 11.0006

Elevation: 244

Station Type: PCE-FWS 20

http://iz5ilj.altervista.org

Latest ConditionsUpdated 11:15:03 PM GMT+01:01 Thursday, Jul 18, 2019
Currently Today's Max Today's Min Today's Average
Temperature 67.6°F19.8°C 87.8°F31.0°C 59.5°F15.3°C 73.7°F23.2°C
Dew Point 55.5°F13.1°C 60.9°F16.1°C 51.9°F11.1°C 55.9°F13.3°C
Winds 1.6 mph S2.6 kmh S 7.6 mph -12.2 kmh - - 2.3 mph 3.7 kmh
Wind Gusts 3.8 mph6.1 kmh 18.3 mph29.5 kmh - -
Humidity 65% 90% 30% 58%
Pressure 29.75 in1007.5 mb 29.75 in1007.5 mb 29.67 in1004.7 mb -
Hour Temp Dew Point Humidity Winds Wind Gusts Pressure Precip Precip Rate Daily Precip Total
11:15 PM 67.6°F19.8°C 55.5°F13.1°C 65% 1.6 mph S2.6 kmh S 3.8 mph6.1 kmh 29.75 in1007.5 mb 0.00 in0.0 mm 0.00 in0.0 mm 0.00 in0.0 mm
11:00 PM 67.6°F19.8°C 53.7°F12.1°C 61% 1.3 mph ESE2.1 kmh ESE 3.1 mph5.0 kmh 29.75 in1007.5 mb 0.00 in0.0 mm 0.00 in0.0 mm 0.00 in0.0 mm
10:45 PM 68.4°F20.2°C 54.0°F12.2°C 60% 0.5 mph S0.8 kmh S 2.2 mph3.5 kmh 29.75 in1007.5 mb 0.00 in0.0 mm 0.00 in0.0 mm 0.00 in0.0 mm
10:30 PM 69.6°F20.9°C 53.7°F12.1°C 57% 1.5 mph S2.4 kmh S 3.1 mph5.0 kmh 29.75 in1007.5 mb 0.00 in0.0 mm 0.00 in0.0 mm 0.00 in0.0 mm
10:15 PM 69.8°F21.0°C 53.4°F11.9°C 56% 1.9 mph SSE3.1 kmh SSE 3.8 mph6.1 kmh 29.74 in1007.1 mb 0.00 in0.0 mm 0.00 in0.0 mm 0.00 in0.0 mm
10:00 PM 71.4°F21.9°C 52.4°F11.3°C 51% 1.0 mph W1.6 kmh W 2.2 mph3.5 kmh 29.74 in1007.1 mb 0.00 in0.0 mm 0.00 in0.0 mm 0.00 in0.0 mm
09:45 PM 72.3°F22.4°C 52.7°F11.5°C 50% 1.5 mph W2.4 kmh W 3.1 mph5.0 kmh 29.73 in1006.8 mb 0.00 in0.0 mm 0.00 in0.0 mm 0.00 in0.0 mm
09:30 PM 72.5°F22.5°C 52.8°F11.6°C 50% 2.3 mph W3.7 kmh W 3.8 mph6.1 kmh 29.73 in1006.8 mb 0.00 in0.0 mm 0.00 in0.0 mm 0.00 in0.0 mm
09:15 PM 73.0°F22.8°C 54.4°F12.4°C 52% 1.4 mph W2.3 kmh W 3.1 mph5.0 kmh 29.73 in1006.8 mb 0.00 in0.0 mm 0.00 in0.0 mm 0.00 in0.0 mm
09:00 PM 73.2°F22.9°C 54.6°F12.6°C 52% 1.2 mph W1.9 kmh W 3.1 mph5.0 kmh 29.73 in1006.8 mb 0.00 in0.0 mm 0.00 in0.0 mm 0.00 in0.0 mm
08:46 PM 73.8°F23.2°C 54.5°F12.5°C 51% 2.0 mph W3.2 kmh W 3.1 mph5.0 kmh 29.72 in1006.4 mb 0.00 in0.0 mm 0.00 in0.0 mm 0.00 in0.0 mm
08:41 PM 73.9°F23.3°C 54.7°F12.6°C 51% 2.2 mph WSW3.5 kmh WSW 3.1 mph5.0 kmh 29.72 in1006.4 mb 0.00 in0.0 mm 0.00 in0.0 mm 0.00 in0.0 mm
08:36 PM 74.1°F23.4°C 54.3°F12.4°C 50% 2.2 mph WSW3.5 kmh WSW 3.1 mph5.0 kmh 29.72 in1006.4 mb 0.00 in0.0 mm 0.00 in0.0 mm 0.00 in0.0 mm
08:31 PM 74.5°F23.6°C 54.6°F12.6°C 50% 2.2 mph SW3.5 kmh SW 3.1 mph5.0 kmh 29.72 in1006.4 mb 0.00 in0.0 mm 0.00 in0.0 mm 0.00 in0.0 mm
08:26 PM 74.7°F23.7°C 54.2°F12.3°C 49% 2.0 mph SW3.2 kmh SW 3.1 mph5.0 kmh 29.72 in1006.4 mb 0.00 in0.0 mm 0.00 in0.0 mm 0.00 in0.0 mm
08:21 PM 74.8°F23.8°C 53.8°F12.1°C 48% 1.8 mph SW2.9 kmh SW 3.1 mph5.0 kmh 29.71 in1006.1 mb 0.00 in0.0 mm 0.00 in0.0 mm 0.00 in0.0 mm
08:16 PM 75.2°F24.0°C 53.6°F12.0°C 47% 1.6 mph SW2.6 kmh SW 3.1 mph5.0 kmh 29.71 in1006.1 mb 0.00 in0.0 mm 0.00 in0.0 mm 0.00 in0.0 mm
08:11 PM 75.7°F24.3°C 54.1°F12.3°C 47% 2.1 mph SW3.4 kmh SW 3.8 mph6.1 kmh 29.71 in1006.1 mb 0.00 in0.0 mm 0.00 in0.0 mm 0.00 in0.0 mm
08:06 PM 76.3°F24.6°C 54.0°F12.2°C 46% 1.8 mph SW2.9 kmh SW 3.8 mph6.1 kmh 29.71 in1006.1 mb 0.00 in0.0 mm 0.00 in0.0 mm 0.00 in0.0 mm
08:01 PM 76.8°F24.9°C 53.9°F12.2°C 45% 1.8 mph SW2.9 kmh SW 3.8 mph6.1 kmh 29.71 in1006.1 mb 0.00 in0.0 mm 0.00 in0.0 mm 0.00 in0.0 mm
07:56 PM 77.4°F25.2°C 53.1°F11.7°C 43% 1.3 mph WSW2.1 kmh WSW 2.2 mph3.5 kmh 29.70 in1005.8 mb 0.00 in0.0 mm 0.00 in0.0 mm 0.00 in0.0 mm
07:51 PM 77.9°F25.5°C 53.6°F12.0°C 43% 1.3 mph W2.1 kmh W 2.2 mph3.5 kmh 29.70 in1005.8 mb 0.00 in0.0 mm 0.00 in0.0 mm 0.00 in0.0 mm
07:46 PM 78.3°F25.7°C 52.6°F11.4°C 41% 1.0 mph W1.6 kmh W 2.2 mph3.5 kmh 29.70 in1005.8 mb 0.00 in0.0 mm 0.00 in0.0 mm 0.00 in0.0 mm
07:41 PM 78.6°F25.9°C 52.9°F11.6°C 41% 1.0 mph NW1.6 kmh NW 3.1 mph5.0 kmh 29.70 in1005.8 mb 0.00 in0.0 mm 0.00 in0.0 mm 0.00 in0.0 mm
07:36 PM 79.2°F26.2°C 52.8°F11.6°C 40% 1.3 mph NW2.1 kmh NW 3.1 mph5.0 kmh 29.70 in1005.8 mb 0.00 in0.0 mm 0.00 in0.0 mm 0.00 in0.0 mm
07:31 PM 79.7°F26.5°C 53.2°F11.8°C 40% 2.3 mph W3.7 kmh W 6.0 mph9.7 kmh 29.70 in1005.8 mb 0.00 in0.0 mm 0.00 in0.0 mm 0.00 in0.0 mm
07:26 PM 80.2°F26.8°C 53.0°F11.7°C 39% 2.5 mph W4.0 kmh W 6.0 mph9.7 kmh 29.70 in1005.8 mb 0.00 in0.0 mm 0.00 in0.0 mm 0.00 in0.0 mm
07:21 PM 81.0°F27.2°C 53.0°F11.7°C 38% 2.5 mph W4.0 kmh W 6.0 mph9.7 kmh 29.69 in1005.4 mb 0.00 in0.0 mm 0.00 in0.0 mm 0.00 in0.0 mm
07:16 PM 81.3°F27.4°C 53.3°F11.8°C 38% 1.5 mph W2.4 kmh W 3.1 mph5.0 kmh 29.70 in1005.8 mb 0.00 in0.0 mm 0.00 in0.0 mm 0.00 in0.0 mm
07:11 PM 81.7°F27.6°C 53.6°F12.0°C 38% 1.0 mph NW1.6 kmh NW 3.1 mph5.0 kmh 29.70 in1005.8 mb 0.00 in0.0 mm 0.00 in0.0 mm 0.00 in0.0 mm
07:06 PM 82.4°F28.0°C 54.2°F12.3°C 38% 1.5 mph WNW2.4 kmh WNW 6.0 mph9.7 kmh 29.70 in1005.8 mb 0.00 in0.0 mm 0.00 in0.0 mm 0.00 in0.0 mm
07:01 PM 82.4°F28.0°C 54.2°F12.3°C 38% 2.3 mph W3.7 kmh W 6.0 mph9.7 kmh 29.70 in1005.8 mb 0.00 in0.0 mm 0.00 in0.0 mm 0.00 in0.0 mm
06:56 PM 82.6°F28.1°C 54.4°F12.4°C 38% 3.1 mph W5.0 kmh W 6.0 mph9.7 kmh 29.69 in1005.4 mb 0.00 in0.0 mm 0.00 in0.0 mm 0.00 in0.0 mm
06:51 PM 82.8°F28.2°C 54.6°F12.6°C 38% 3.1 mph W5.0 kmh W 6.0 mph9.7 kmh 29.69 in1005.4 mb 0.00 in0.0 mm 0.00 in0.0 mm 0.00 in0.0 mm
06:46 PM 83.3°F28.5°C 55.0°F12.8°C 38% 3.4 mph W5.5 kmh W 6.0 mph9.7 kmh 29.69 in1005.4 mb 0.00 in0.0 mm 0.00 in0.0 mm 0.00 in0.0 mm
06:41 PM 83.7°F28.7°C 54.6°F12.6°C 37% 3.6 mph WNW5.8 kmh WNW 6.0 mph9.7 kmh 29.69 in1005.4 mb 0.00 in0.0 mm 0.00 in0.0 mm 0.00 in0.0 mm
06:36 PM 83.5°F28.6°C 55.2°F12.9°C 38% 4.3 mph WNW6.9 kmh WNW 6.9 mph11.1 kmh 29.69 in1005.4 mb 0.00 in0.0 mm 0.00 in0.0 mm 0.00 in0.0 mm
06:31 PM 83.8°F28.8°C 54.0°F12.2°C 36% 4.8 mph W7.7 kmh W 7.6 mph12.2 kmh 29.69 in1005.4 mb 0.00 in0.0 mm 0.00 in0.0 mm 0.00 in0.0 mm
06:26 PM 84.0°F28.9°C 54.2°F12.3°C 36% 5.1 mph WSW8.2 kmh WSW 7.6 mph12.2 kmh 29.69 in1005.4 mb 0.00 in0.0 mm 0.00 in0.0 mm 0.00 in0.0 mm
06:21 PM 84.0°F28.9°C 53.4°F11.9°C 35% 5.3 mph W8.5 kmh W 8.3 mph13.4 kmh 29.69 in1005.4 mb 0.00 in0.0 mm 0.00 in0.0 mm 0.00 in0.0 mm
06:16 PM 84.7°F29.3°C 53.3°F11.8°C 34% 5.3 mph WNW8.5 kmh WNW 8.3 mph13.4 kmh 29.69 in1005.4 mb 0.00 in0.0 mm 0.00 in0.0 mm 0.00 in0.0 mm
06:11 PM 85.1°F29.5°C 53.6°F12.0°C 34% 5.5 mph WNW8.9 kmh WNW 8.3 mph13.4 kmh 29.69 in1005.4 mb 0.00 in0.0 mm 0.00 in0.0 mm 0.00 in0.0 mm
06:06 PM 85.1°F29.5°C 53.6°F12.0°C 34% 5.3 mph W8.5 kmh W 9.3 mph15.0 kmh 29.69 in1005.4 mb 0.00 in0.0 mm 0.00 in0.0 mm 0.00 in0.0 mm
06:00 PM 85.1°F29.5°C 53.6°F12.0°C 34% 5.8 mph W9.3 kmh W 13.6 mph21.9 kmh 29.68 in1005.1 mb 0.00 in0.0 mm 0.00 in0.0 mm 0.00 in0.0 mm
05:45 PM 86.4°F30.2°C 54.7°F12.6°C 34% 4.0 mph WSW6.4 kmh WSW 12.1 mph19.5 kmh 29.68 in1005.1 mb 0.00 in0.0 mm 0.00 in0.0 mm 0.00 in0.0 mm
05:30 PM 86.2°F30.1°C 54.6°F12.6°C 34% 5.9 mph WSW9.5 kmh WSW 12.1 mph19.5 kmh 29.68 in1005.1 mb 0.00 in0.0 mm 0.00 in0.0 mm 0.00 in0.0 mm
05:15 PM 86.0°F30.0°C 56.0°F13.3°C 36% 6.9 mph NW11.1 kmh NW 18.3 mph29.5 kmh 29.68 in1005.1 mb 0.00 in0.0 mm 0.00 in0.0 mm 0.00 in0.0 mm
05:00 PM 86.2°F30.1°C 57.6°F14.2°C 38% 4.5 mph WNW7.2 kmh WNW 10.7 mph17.2 kmh 29.67 in1004.7 mb 0.00 in0.0 mm 0.00 in0.0 mm 0.00 in0.0 mm
04:45 PM 84.0°F28.9°C 57.8°F14.3°C 41% 2.6 mph W4.2 kmh W 7.6 mph12.2 kmh 29.67 in1004.7 mb 0.00 in0.0 mm 0.00 in0.0 mm 0.00 in0.0 mm
04:30 PM 84.7°F29.3°C 57.1°F13.9°C 39% 2.0 mph WNW3.2 kmh WNW 5.4 mph8.7 kmh 29.67 in1004.7 mb 0.00 in0.0 mm 0.00 in0.0 mm 0.00 in0.0 mm
04:15 PM 84.9°F29.4°C 55.8°F13.2°C 37% 5.6 mph NW9.0 kmh NW 13.6 mph21.9 kmh 29.67 in1004.7 mb 0.00 in0.0 mm 0.00 in0.0 mm 0.00 in0.0 mm
04:00 PM 82.9°F28.3°C 57.5°F14.2°C 42% 3.9 mph NW6.3 kmh NW 8.3 mph13.4 kmh 29.67 in1004.7 mb 0.00 in0.0 mm 0.00 in0.0 mm 0.00 in0.0 mm
03:45 PM 82.6°F28.1°C 57.2°F14.0°C 42% 4.4 mph W7.1 kmh W 13.0 mph20.9 kmh 29.67 in1004.7 mb 0.00 in0.0 mm 0.00 in0.0 mm 0.00 in0.0 mm
03:30 PM 82.9°F28.3°C 57.5°F14.2°C 42% 4.8 mph WNW7.7 kmh WNW 9.2 mph14.8 kmh 29.67 in1004.7 mb 0.00 in0.0 mm 0.00 in0.0 mm 0.00 in0.0 mm
03:15 PM 83.7°F28.7°C 56.8°F13.8°C 40% 4.4 mph NW7.1 kmh NW 11.4 mph18.3 kmh 29.68 in1005.1 mb 0.00 in0.0 mm 0.00 in0.0 mm 0.00 in0.0 mm
03:00 PM 85.1°F29.5°C 59.5°F15.3°C 42% 2.0 mph NNE3.2 kmh NNE 4.5 mph7.2 kmh 29.68 in1005.1 mb 0.00 in0.0 mm 0.00 in0.0 mm 0.00 in0.0 mm
02:45 PM 81.3°F27.4°C 60.9°F16.1°C 50% 2.7 mph NNE4.3 kmh NNE 6.9 mph11.1 kmh 29.68 in1005.1 mb 0.00 in0.0 mm 0.00 in0.0 mm 0.00 in0.0 mm
02:30 PM 81.7°F27.6°C 59.5°F15.3°C 47% 2.7 mph N4.3 kmh N 7.6 mph12.2 kmh 29.68 in1005.1 mb 0.00 in0.0 mm 0.00 in0.0 mm 0.00 in0.0 mm
02:15 PM 83.3°F28.5°C 59.2°F15.1°C 44% 3.5 mph NW5.6 kmh NW 8.3 mph13.4 kmh 29.69 in1005.4 mb 0.00 in0.0 mm 0.00 in0.0 mm 0.00 in0.0 mm
02:00 PM 83.5°F28.6°C 58.0°F14.4°C 42% 3.6 mph N5.8 kmh N 8.3 mph13.4 kmh 29.68 in1005.1 mb 0.00 in0.0 mm 0.00 in0.0 mm 0.00 in0.0 mm
01:31 PM 86.5°F30.3°C 56.4°F13.6°C 36% 4.9 mph NNW7.9 kmh NNW 9.8 mph15.8 kmh 29.68 in1005.1 mb 0.00 in0.0 mm 0.00 in0.0 mm 0.00 in0.0 mm
01:26 PM 86.7°F30.4°C 55.8°F13.2°C 35% 4.9 mph ENE7.9 kmh ENE 7.6 mph12.2 kmh 29.68 in1005.1 mb 0.00 in0.0 mm 0.00 in0.0 mm 0.00 in0.0 mm
01:20 PM 86.4°F30.2°C 55.5°F13.1°C 35% 6.0 mph N9.7 kmh N 12.1 mph19.5 kmh 29.68 in1005.1 mb 0.00 in0.0 mm 0.00 in0.0 mm 0.00 in0.0 mm
01:15 PM 86.7°F30.4°C 55.8°F13.2°C 35% 5.4 mph WNW8.7 kmh WNW 13.0 mph20.9 kmh 29.68 in1005.1 mb 0.00 in0.0 mm 0.00 in0.0 mm 0.00 in0.0 mm
01:10 PM 87.8°F31.0°C 55.1°F12.8°C 33% 4.9 mph N7.9 kmh N 12.1 mph19.5 kmh 29.68 in1005.1 mb 0.00 in0.0 mm 0.00 in0.0 mm 0.00 in0.0 mm
01:09 PM 87.8°F31.0°C 55.1°F12.8°C 33% 4.9 mph N7.9 kmh N 12.1 mph19.5 kmh 29.68 in1005.1 mb 0.00 in0.0 mm 0.00 in0.0 mm 0.00 in0.0 mm
01:04 PM 86.7°F30.4°C 55.8°F13.2°C 35% 4.6 mph NNE7.4 kmh NNE 9.2 mph14.8 kmh 29.68 in1005.1 mb 0.00 in0.0 mm 0.00 in0.0 mm 0.00 in0.0 mm
01:03 PM 86.7°F30.4°C 55.8°F13.2°C 35% 4.6 mph NNE7.4 kmh NNE 9.2 mph14.8 kmh 29.68 in1005.1 mb 0.00 in0.0 mm 0.00 in0.0 mm 0.00 in0.0 mm
12:59 PM 87.1°F30.6°C 56.1°F13.4°C 35% 5.0 mph NNE8.0 kmh NNE 9.2 mph14.8 kmh 29.69 in1005.4 mb 0.00 in0.0 mm 0.00 in0.0 mm 0.00 in0.0 mm
12:58 PM 87.1°F30.6°C 56.1°F13.4°C 35% 5.0 mph NNE8.0 kmh NNE 9.2 mph14.8 kmh 29.69 in1005.4 mb 0.00 in0.0 mm 0.00 in0.0 mm 0.00 in0.0 mm
12:54 PM 86.5°F30.3°C 55.6°F13.1°C 35% 5.4 mph N8.7 kmh N 9.8 mph15.8 kmh 29.68 in1005.1 mb 0.00 in0.0 mm 0.00 in0.0 mm 0.00 in0.0 mm
12:53 PM 86.5°F30.3°C 55.6°F13.1°C 35% 5.4 mph N8.7 kmh N 9.8 mph15.8 kmh 29.68 in1005.1 mb 0.00 in0.0 mm 0.00 in0.0 mm 0.00 in0.0 mm
12:48 PM 85.8°F29.9°C 55.8°F13.2°C 36% 7.6 mph NNW12.2 kmh NNW 11.4 mph18.3 kmh 29.68 in1005.1 mb 0.00 in0.0 mm 0.00 in0.0 mm 0.00 in0.0 mm
12:47 PM 85.8°F29.9°C 55.8°F13.2°C 36% 7.6 mph NNW12.2 kmh NNW 11.4 mph18.3 kmh 29.68 in1005.1 mb 0.00 in0.0 mm 0.00 in0.0 mm 0.00 in0.0 mm
12:43 PM 84.9°F29.4°C 56.5°F13.6°C 38% 7.6 mph NW12.2 kmh NW 11.4 mph18.3 kmh 29.69 in1005.4 mb 0.00 in0.0 mm 0.00 in0.0 mm 0.00 in0.0 mm
12:42 PM 84.9°F29.4°C 56.5°F13.6°C 38% 7.6 mph NW12.2 kmh NW 11.4 mph18.3 kmh 29.69 in1005.4 mb 0.00 in0.0 mm 0.00 in0.0 mm 0.00 in0.0 mm
12:38 PM 84.7°F29.3°C 57.0°F13.9°C 39% 6.9 mph N11.1 kmh N 9.8 mph15.8 kmh 29.69 in1005.4 mb 0.00 in0.0 mm 0.00 in0.0 mm 0.00 in0.0 mm
12:37 PM 84.7°F29.3°C 57.0°F13.9°C 39% 6.9 mph N11.1 kmh N 9.8 mph15.8 kmh 29.69 in1005.4 mb 0.00 in0.0 mm 0.00 in0.0 mm 0.00 in0.0 mm
12:32 PM 85.6°F29.8°C 57.1°F13.9°C 38% 4.6 mph N7.4 kmh N 9.2 mph14.8 kmh 29.69 in1005.4 mb 0.00 in0.0 mm 0.00 in0.0 mm 0.00 in0.0 mm
12:31 PM 85.6°F29.8°C 57.1°F13.9°C 38% 4.6 mph N7.4 kmh N 9.2 mph14.8 kmh 29.69 in1005.4 mb 0.00 in0.0 mm 0.00 in0.0 mm 0.00 in0.0 mm
12:27 PM 85.1°F29.5°C 58.1°F14.5°C 40% 3.5 mph N5.6 kmh N 5.4 mph8.7 kmh 29.69 in1005.4 mb 0.00 in0.0 mm 0.00 in0.0 mm 0.00 in0.0 mm
12:26 PM 85.1°F29.5°C 58.1°F14.5°C 40% 3.5 mph N5.6 kmh N 5.4 mph8.7 kmh 29.69 in1005.4 mb 0.00 in0.0 mm 0.00 in0.0 mm 0.00 in0.0 mm
12:22 PM 83.7°F28.7°C 57.5°F14.2°C 41% 4.3 mph NNE6.9 kmh NNE 6.9 mph11.1 kmh 29.69 in1005.4 mb 0.00 in0.0 mm 0.00 in0.0 mm 0.00 in0.0 mm
12:21 PM 83.7°F28.7°C 57.5°F14.2°C 41% 4.3 mph NNE6.9 kmh NNE 6.9 mph11.1 kmh 29.69 in1005.4 mb 0.00 in0.0 mm 0.00 in0.0 mm 0.00 in0.0 mm
12:16 PM 83.7°F28.7°C 57.5°F14.2°C 41% 5.8 mph NNE9.3 kmh NNE 9.2 mph14.8 kmh 29.69 in1005.4 mb 0.00 in0.0 mm 0.00 in0.0 mm 0.00 in0.0 mm
12:15 PM 83.7°F28.7°C 57.5°F14.2°C 41% 5.8 mph NNE9.3 kmh NNE 9.2 mph14.8 kmh 29.69 in1005.4 mb 0.00 in0.0 mm 0.00 in0.0 mm 0.00 in0.0 mm
12:11 PM 83.3°F28.5°C 57.8°F14.3°C 42% 6.0 mph NNE9.7 kmh NNE 9.2 mph14.8 kmh 29.69 in1005.4 mb 0.00 in0.0 mm 0.00 in0.0 mm 0.00 in0.0 mm
12:10 PM 83.3°F28.5°C 57.8°F14.3°C 42% 6.3 mph NNE10.1 kmh NNE 9.2 mph14.8 kmh 29.69 in1005.4 mb 0.00 in0.0 mm 0.00 in0.0 mm 0.00 in0.0 mm
12:06 PM 84.0°F28.9°C 57.1°F13.9°C 40% 4.5 mph NW7.2 kmh NW 6.9 mph11.1 kmh 29.69 in1005.4 mb 0.00 in0.0 mm 0.00 in0.0 mm 0.00 in0.0 mm
12:05 PM 84.0°F28.9°C 57.1°F13.9°C 40% 5.6 mph NNE9.0 kmh NNE 7.5 mph12.1 kmh 29.69 in1005.4 mb 0.00 in0.0 mm 0.00 in0.0 mm 0.00 in0.0 mm
12:00 PM 83.8°F28.8°C 57.0°F13.9°C 40% 5.9 mph N9.5 kmh N 12.1 mph19.5 kmh 29.69 in1005.4 mb 0.00 in0.0 mm 0.00 in0.0 mm 0.00 in0.0 mm
11:55 AM 85.6°F29.8°C 56.4°F13.6°C 37% 4.1 mph NW6.6 kmh NW 6.9 mph11.1 kmh 29.69 in1005.4 mb 0.00 in0.0 mm 0.00 in0.0 mm 0.00 in0.0 mm
11:50 AM 85.8°F29.9°C 55.8°F13.2°C 36% 3.0 mph NNW4.8 kmh NNW 6.9 mph11.1 kmh 29.69 in1005.4 mb 0.00 in0.0 mm 0.00 in0.0 mm 0.00 in0.0 mm
11:45 AM 84.9°F29.4°C 58.0°F14.4°C 40% 4.4 mph NW7.1 kmh NW 11.4 mph18.3 kmh 29.69 in1005.4 mb 0.00 in0.0 mm 0.00 in0.0 mm 0.00 in0.0 mm
11:44 AM 84.0°F28.9°C 57.1°F13.9°C 40% 4.6 mph NNW7.4 kmh NNW 10.7 mph17.2 kmh 29.69 in1005.4 mb 0.00 in0.0 mm 0.00 in0.0 mm 0.00 in0.0 mm
11:39 AM 84.7°F29.3°C 57.7°F14.3°C 40% 6.2 mph N10.0 kmh N 10.7 mph17.2 kmh 29.69 in1005.4 mb 0.00 in0.0 mm 0.00 in0.0 mm 0.00 in0.0 mm
11:34 AM 83.5°F28.6°C 55.9°F13.3°C 39% 6.2 mph W10.0 kmh W 10.7 mph17.2 kmh 29.69 in1005.4 mb 0.00 in0.0 mm 0.00 in0.0 mm 0.00 in0.0 mm
11:30 AM 83.5°F28.6°C 56.7°F13.7°C 40% 6.5 mph NW10.5 kmh NW 11.4 mph18.3 kmh 29.69 in1005.4 mb 0.00 in0.0 mm 0.00 in0.0 mm 0.00 in0.0 mm
11:28 AM 83.7°F28.7°C 54.6°F12.6°C 37% 6.1 mph WNW9.8 kmh WNW 10.7 mph17.2 kmh 29.69 in1005.4 mb 0.00 in0.0 mm 0.00 in0.0 mm 0.00 in0.0 mm
11:23 AM 84.0°F28.9°C 54.9°F12.7°C 37% 4.6 mph NW7.4 kmh NW 6.9 mph11.1 kmh 29.69 in1005.4 mb 0.00 in0.0 mm 0.00 in0.0 mm 0.00 in0.0 mm
11:18 AM 84.0°F28.9°C 54.9°F12.7°C 37% 3.5 mph NW5.6 kmh NW 5.4 mph8.7 kmh 29.69 in1005.4 mb 0.00 in0.0 mm 0.00 in0.0 mm 0.00 in0.0 mm
11:15 AM 84.0°F28.9°C 54.2°F12.3°C 36% 4.2 mph NNW6.8 kmh NNW 9.8 mph15.8 kmh 29.69 in1005.4 mb 0.00 in0.0 mm 0.00 in0.0 mm 0.00 in0.0 mm
11:12 AM 84.0°F28.9°C 52.6°F11.4°C 34% 5.1 mph N8.2 kmh N 9.8 mph15.8 kmh 29.69 in1005.4 mb 0.00 in0.0 mm 0.00 in0.0 mm 0.00 in0.0 mm
11:07 AM 87.4°F30.8°C 52.2°F11.2°C 30% 6.0 mph NNE9.7 kmh NNE 9.8 mph15.8 kmh 29.69 in1005.4 mb 0.00 in0.0 mm 0.00 in0.0 mm 0.00 in0.0 mm
11:02 AM 87.4°F30.8°C 52.2°F11.2°C 30% 3.8 mph NE6.1 kmh NE 9.8 mph15.8 kmh 29.69 in1005.4 mb 0.00 in0.0 mm 0.00 in0.0 mm 0.00 in0.0 mm
11:00 AM 87.6°F30.9°C 52.4°F11.3°C 30% 2.7 mph W4.3 kmh W 6.9 mph11.1 kmh 29.69 in1005.4 mb 0.00 in0.0 mm 0.00 in0.0 mm 0.00 in0.0 mm
10:56 AM 87.1°F30.6°C 53.6°F12.0°C 32% 2.3 mph WSW3.7 kmh WSW 7.6 mph12.2 kmh 29.69 in1005.4 mb 0.00 in0.0 mm 0.00 in0.0 mm 0.00 in0.0 mm
10:51 AM 87.1°F30.6°C 53.6°F12.0°C 32% 2.7 mph W4.3 kmh W 7.6 mph12.2 kmh 29.69 in1005.4 mb 0.00 in0.0 mm 0.00 in0.0 mm 0.00 in0.0 mm
10:46 AM 86.4°F30.2°C 53.0°F11.7°C 32% 2.7 mph W4.3 kmh W 6.0 mph9.7 kmh 29.70 in1005.8 mb 0.00 in0.0 mm 0.00 in0.0 mm 0.00 in0.0 mm
10:40 AM 84.6°F29.2°C 54.7°F12.6°C 36% 4.3 mph W6.9 kmh W 6.9 mph11.1 kmh 29.69 in1005.4 mb 0.00 in0.0 mm 0.00 in0.0 mm 0.00 in0.0 mm
10:39 AM 84.6°F29.2°C 54.7°F12.6°C 36% 4.3 mph W6.9 kmh W 6.9 mph11.1 kmh 29.69 in1005.4 mb 0.00 in0.0 mm 0.00 in0.0 mm 0.00 in0.0 mm
10:35 AM 83.8°F28.8°C 53.3°F11.8°C 35% 4.6 mph W7.4 kmh W 6.9 mph11.1 kmh 29.69 in1005.4 mb 0.00 in0.0 mm 0.00 in0.0 mm 0.00 in0.0 mm
10:34 AM 83.8°F28.8°C 53.3°F11.8°C 35% 4.6 mph W7.4 kmh W 6.9 mph11.1 kmh 29.69 in1005.4 mb 0.00 in0.0 mm 0.00 in0.0 mm 0.00 in0.0 mm
10:30 AM 83.8°F28.8°C 53.3°F11.8°C 35% 4.9 mph NW7.9 kmh NW 6.9 mph11.1 kmh 29.69 in1005.4 mb 0.00 in0.0 mm 0.00 in0.0 mm 0.00 in0.0 mm
10:29 AM 83.8°F28.8°C 53.3°F11.8°C 35% 4.9 mph NW7.9 kmh NW 6.9 mph11.1 kmh 29.69 in1005.4 mb 0.00 in0.0 mm 0.00 in0.0 mm 0.00 in0.0 mm
10:24 AM 83.5°F28.6°C 53.7°F12.1°C 36% 4.3 mph NNW6.9 kmh NNW 7.6 mph12.2 kmh 29.69 in1005.4 mb 0.00 in0.0 mm 0.00 in0.0 mm 0.00 in0.0 mm
10:23 AM 83.5°F28.6°C 53.7°F12.1°C 36% 4.3 mph NNW6.9 kmh NNW 7.6 mph12.2 kmh 29.69 in1005.4 mb 0.00 in0.0 mm 0.00 in0.0 mm 0.00 in0.0 mm
10:19 AM 83.7°F28.7°C 53.1°F11.7°C 35% 4.3 mph NW6.9 kmh NW 7.6 mph12.2 kmh 29.69 in1005.4 mb 0.00 in0.0 mm 0.00 in0.0 mm 0.00 in0.0 mm
10:18 AM 83.7°F28.7°C 53.1°F11.7°C 35% 4.3 mph NW6.9 kmh NW 7.6 mph12.2 kmh 29.69 in1005.4 mb 0.00 in0.0 mm 0.00 in0.0 mm 0.00 in0.0 mm
10:14 AM 83.5°F28.6°C 52.9°F11.6°C 35% 3.1 mph NW5.0 kmh NW 5.4 mph8.7 kmh 29.70 in1005.8 mb 0.00 in0.0 mm 0.00 in0.0 mm 0.00 in0.0 mm
10:13 AM 83.5°F28.6°C 52.9°F11.6°C 35% 3.1 mph NW5.0 kmh NW 5.4 mph8.7 kmh 29.70 in1005.8 mb 0.00 in0.0 mm 0.00 in0.0 mm 0.00 in0.0 mm
10:08 AM 85.1°F29.5°C 51.9°F11.1°C 32% 3.1 mph NE5.0 kmh NE 4.5 mph7.2 kmh 29.70 in1005.8 mb 0.00 in0.0 mm 0.00 in0.0 mm 0.00 in0.0 mm
10:07 AM 85.1°F29.5°C 51.9°F11.1°C 32% 3.1 mph NE5.0 kmh NE 4.5 mph7.2 kmh 29.70 in1005.8 mb 0.00 in0.0 mm 0.00 in0.0 mm 0.00 in0.0 mm
10:03 AM 84.7°F29.3°C 54.1°F12.3°C 35% 3.1 mph SE5.0 kmh SE 4.5 mph7.2 kmh 29.69 in1005.4 mb 0.00 in0.0 mm 0.00 in0.0 mm 0.00 in0.0 mm
10:02 AM 84.7°F29.3°C 54.1°F12.3°C 35% 3.1 mph SE5.0 kmh SE 4.5 mph7.2 kmh 29.69 in1005.4 mb 0.00 in0.0 mm 0.00 in0.0 mm 0.00 in0.0 mm
09:58 AM 83.8°F28.8°C 52.5°F11.4°C 34% 2.3 mph E3.7 kmh E 4.5 mph7.2 kmh 29.69 in1005.4 mb 0.00 in0.0 mm 0.00 in0.0 mm 0.00 in0.0 mm
09:57 AM 83.8°F28.8°C 52.5°F11.4°C 34% 2.3 mph E3.7 kmh E 4.5 mph7.2 kmh 29.69 in1005.4 mb 0.00 in0.0 mm 0.00 in0.0 mm 0.00 in0.0 mm
09:52 AM 83.5°F28.6°C 52.2°F11.2°C 34% 2.5 mph NNW4.0 kmh NNW 6.0 mph9.7 kmh 29.69 in1005.4 mb 0.00 in0.0 mm 0.00 in0.0 mm 0.00 in0.0 mm
09:51 AM 83.5°F28.6°C 52.2°F11.2°C 34% 2.5 mph NNW4.0 kmh NNW 6.0 mph9.7 kmh 29.69 in1005.4 mb 0.00 in0.0 mm 0.00 in0.0 mm 0.00 in0.0 mm
09:47 AM 83.3°F28.5°C 53.6°F12.0°C 36% 3.0 mph N4.8 kmh N 6.0 mph9.7 kmh 29.69 in1005.4 mb 0.00 in0.0 mm 0.00 in0.0 mm 0.00 in0.0 mm
09:46 AM 83.3°F28.5°C 53.6°F12.0°C 36% 3.0 mph N4.8 kmh N 6.0 mph9.7 kmh 29.69 in1005.4 mb 0.00 in0.0 mm 0.00 in0.0 mm 0.00 in0.0 mm
09:42 AM 82.6°F28.1°C 53.7°F12.1°C 37% 2.3 mph N3.7 kmh N 5.4 mph8.7 kmh 29.69 in1005.4 mb 0.00 in0.0 mm 0.00 in0.0 mm 0.00 in0.0 mm
09:41 AM 82.6°F28.1°C 53.7°F12.1°C 37% 2.3 mph N3.7 kmh N 5.4 mph8.7 kmh 29.69 in1005.4 mb 0.00 in0.0 mm 0.00 in0.0 mm 0.00 in0.0 mm
09:36 AM 82.6°F28.1°C 52.9°F11.6°C 36% 2.6 mph NNE4.2 kmh NNE 6.0 mph9.7 kmh 29.69 in1005.4 mb 0.00 in0.0 mm 0.00 in0.0 mm 0.00 in0.0 mm
09:35 AM 82.6°F28.1°C 52.9°F11.6°C 36% 2.6 mph NNE4.2 kmh NNE 6.0 mph9.7 kmh 29.69 in1005.4 mb 0.00 in0.0 mm 0.00 in0.0 mm 0.00 in0.0 mm
09:31 AM 83.7°F28.7°C 52.3°F11.3°C 34% 2.3 mph NNE3.7 kmh NNE 6.0 mph9.7 kmh 29.69 in1005.4 mb 0.00 in0.0 mm 0.00 in0.0 mm 0.00 in0.0 mm
09:30 AM 83.7°F28.7°C 52.3°F11.3°C 34% 2.3 mph NNE3.7 kmh NNE 6.0 mph9.7 kmh 29.69 in1005.4 mb 0.00 in0.0 mm 0.00 in0.0 mm 0.00 in0.0 mm
09:26 AM 84.9°F29.4°C 52.6°F11.4°C 33% 1.6 mph N2.6 kmh N 3.8 mph6.1 kmh 29.69 in1005.4 mb 0.00 in0.0 mm 0.00 in0.0 mm 0.00 in0.0 mm
09:25 AM 84.9°F29.4°C 52.6°F11.4°C 33% 1.6 mph N2.6 kmh N 3.8 mph6.1 kmh 29.69 in1005.4 mb 0.00 in0.0 mm 0.00 in0.0 mm 0.00 in0.0 mm
09:20 AM 87.1°F30.6°C 52.8°F11.6°C 31% 1.0 mph NE1.6 kmh NE 3.1 mph5.0 kmh 29.69 in1005.4 mb 0.00 in0.0 mm 0.00 in0.0 mm 0.00 in0.0 mm
09:19 AM 87.1°F30.6°C 52.8°F11.6°C 31% 1.0 mph NE1.6 kmh NE 3.1 mph5.0 kmh 29.69 in1005.4 mb 0.00 in0.0 mm 0.00 in0.0 mm 0.00 in0.0 mm
09:15 AM 85.6°F29.8°C 52.4°F11.3°C 32% 0.7 mph ESE1.1 kmh ESE 1.6 mph2.6 kmh 29.69 in1005.4 mb 0.00 in0.0 mm 0.00 in0.0 mm 0.00 in0.0 mm
09:14 AM 85.6°F29.8°C 52.4°F11.3°C 32% 0.7 mph ESE1.1 kmh ESE 1.6 mph2.6 kmh 29.69 in1005.4 mb 0.00 in0.0 mm 0.00 in0.0 mm 0.00 in0.0 mm
09:10 AM 84.6°F29.2°C 52.3°F11.3°C 33% 1.1 mph SE1.8 kmh SE 3.1 mph5.0 kmh 29.69 in1005.4 mb 0.00 in0.0 mm 0.00 in0.0 mm 0.00 in0.0 mm
09:09 AM 84.6°F29.2°C 52.3°F11.3°C 33% 1.1 mph SE1.8 kmh SE 3.1 mph5.0 kmh 29.69 in1005.4 mb 0.00 in0.0 mm 0.00 in0.0 mm 0.00 in0.0 mm
09:04 AM 83.8°F28.8°C 53.3°F11.8°C 35% 1.0 mph SE1.6 kmh SE 3.1 mph5.0 kmh 29.69 in1005.4 mb 0.00 in0.0 mm 0.00 in0.0 mm 0.00 in0.0 mm
09:03 AM 83.8°F28.8°C 53.3°F11.8°C 35% 1.0 mph SE1.6 kmh SE 3.1 mph5.0 kmh 29.69 in1005.4 mb 0.00 in0.0 mm 0.00 in0.0 mm 0.00 in0.0 mm
08:59 AM 83.1°F28.4°C 53.4°F11.9°C 36% 1.2 mph SSE1.9 kmh SSE 3.8 mph6.1 kmh 29.69 in1005.4 mb 0.00 in0.0 mm 0.00 in0.0 mm 0.00 in0.0 mm
08:58 AM 83.1°F28.4°C 53.4°F11.9°C 36% 1.2 mph SSE1.9 kmh SSE 3.8 mph6.1 kmh 29.69 in1005.4 mb 0.00 in0.0 mm 0.00 in0.0 mm 0.00 in0.0 mm
08:54 AM 81.9°F27.7°C 52.3°F11.3°C 36% 1.5 mph SSE2.4 kmh SSE 3.8 mph6.1 kmh 29.69 in1005.4 mb 0.00 in0.0 mm 0.00 in0.0 mm 0.00 in0.0 mm
08:53 AM 81.9°F27.7°C 52.3°F11.3°C 36% 1.5 mph SSE2.4 kmh SSE 3.8 mph6.1 kmh 29.69 in1005.4 mb 0.00 in0.0 mm 0.00 in0.0 mm 0.00 in0.0 mm
08:49 AM 82.4°F28.0°C 52.8°F11.6°C 36% 2.3 mph SE3.7 kmh SE 4.5 mph7.2 kmh 29.69 in1005.4 mb 0.00 in0.0 mm 0.00 in0.0 mm 0.00 in0.0 mm
08:48 AM 82.4°F28.0°C 52.8°F11.6°C 36% 2.3 mph SE3.7 kmh SE 4.5 mph7.2 kmh 29.69 in1005.4 mb 0.00 in0.0 mm 0.00 in0.0 mm 0.00 in0.0 mm
08:44 AM 81.5°F27.5°C 52.7°F11.5°C 37% 2.3 mph SE3.7 kmh SE 4.5 mph7.2 kmh 29.69 in1005.4 mb 0.00 in0.0 mm 0.00 in0.0 mm 0.00 in0.0 mm
08:43 AM 81.5°F27.5°C 52.7°F11.5°C 37% 2.3 mph SE3.7 kmh SE 4.5 mph7.2 kmh 29.69 in1005.4 mb 0.00 in0.0 mm 0.00 in0.0 mm 0.00 in0.0 mm
08:39 AM 81.9°F27.7°C 53.0°F11.7°C 37% 2.7 mph E4.3 kmh E 4.5 mph7.2 kmh 29.69 in1005.4 mb 0.00 in0.0 mm 0.00 in0.0 mm 0.00 in0.0 mm
08:38 AM 81.9°F27.7°C 53.0°F11.7°C 37% 2.7 mph E4.3 kmh E 4.5 mph7.2 kmh 29.69 in1005.4 mb 0.00 in0.0 mm 0.00 in0.0 mm 0.00 in0.0 mm
08:34 AM 81.9°F27.7°C 53.8°F12.1°C 38% 1.9 mph SW3.1 kmh SW 3.8 mph6.1 kmh 29.69 in1005.4 mb 0.00 in0.0 mm 0.00 in0.0 mm 0.00 in0.0 mm
08:33 AM 81.9°F27.7°C 53.8°F12.1°C 38% 1.9 mph SW3.1 kmh SW 3.8 mph6.1 kmh 29.69 in1005.4 mb 0.00 in0.0 mm 0.00 in0.0 mm 0.00 in0.0 mm
08:28 AM 80.4°F26.9°C 52.5°F11.4°C 38% 2.1 mph S3.4 kmh S 5.4 mph8.7 kmh 29.69 in1005.4 mb 0.00 in0.0 mm 0.00 in0.0 mm 0.00 in0.0 mm
08:27 AM 80.4°F26.9°C 52.5°F11.4°C 38% 2.1 mph S3.4 kmh S 5.4 mph8.7 kmh 29.69 in1005.4 mb 0.00 in0.0 mm 0.00 in0.0 mm 0.00 in0.0 mm
08:23 AM 81.5°F27.5°C 53.4°F11.9°C 38% 1.8 mph S2.9 kmh S 5.4 mph8.7 kmh 29.69 in1005.4 mb 0.00 in0.0 mm 0.00 in0.0 mm 0.00 in0.0 mm
08:22 AM 81.5°F27.5°C 53.4°F11.9°C 38% 1.8 mph S2.9 kmh S 5.4 mph8.7 kmh 29.69 in1005.4 mb 0.00 in0.0 mm 0.00 in0.0 mm 0.00 in0.0 mm
08:18 AM 82.0°F27.8°C 53.2°F11.8°C 37% 0.7 mph S1.1 kmh S 2.2 mph3.5 kmh 29.69 in1005.4 mb 0.00 in0.0 mm 0.00 in0.0 mm 0.00 in0.0 mm
08:17 AM 82.0°F27.8°C 53.2°F11.8°C 37% 0.7 mph S1.1 kmh S 2.2 mph3.5 kmh 29.69 in1005.4 mb 0.00 in0.0 mm 0.00 in0.0 mm 0.00 in0.0 mm
08:13 AM 82.6°F28.1°C 55.1°F12.8°C 39% 0.4 mph S0.6 kmh S 2.2 mph3.5 kmh 29.69 in1005.4 mb 0.00 in0.0 mm 0.00 in0.0 mm 0.00 in0.0 mm
08:12 AM 82.6°F28.1°C 55.1°F12.8°C 39% 0.4 mph S0.6 kmh S 2.2 mph3.5 kmh 29.69 in1005.4 mb 0.00 in0.0 mm 0.00 in0.0 mm 0.00 in0.0 mm
08:08 AM 81.0°F27.2°C 53.7°F12.1°C 39% 0.7 mph S1.1 kmh S 2.2 mph3.5 kmh 29.69 in1005.4 mb 0.00 in0.0 mm 0.00 in0.0 mm 0.00 in0.0 mm
08:07 AM 81.0°F27.2°C 53.7°F12.1°C 39% 0.7 mph S1.1 kmh S 2.2 mph3.5 kmh 29.69 in1005.4 mb 0.00 in0.0 mm 0.00 in0.0 mm 0.00 in0.0 mm
08:03 AM 79.2°F26.2°C 54.7°F12.6°C 43% 1.3 mph S2.1 kmh S 2.2 mph3.5 kmh 29.69 in1005.4 mb 0.00 in0.0 mm 0.00 in0.0 mm 0.00 in0.0 mm
08:02 AM 79.2°F26.2°C 54.7°F12.6°C 43% 1.3 mph S2.1 kmh S 2.2 mph3.5 kmh 29.69 in1005.4 mb 0.00 in0.0 mm 0.00 in0.0 mm 0.00 in0.0 mm
07:58 AM 78.3°F25.7°C 53.9°F12.2°C 43% 1.8 mph S2.9 kmh S 3.1 mph5.0 kmh 29.69 in1005.4 mb 0.00 in0.0 mm 0.00 in0.0 mm 0.00 in0.0 mm
07:57 AM 78.3°F25.7°C 53.9°F12.2°C 43% 1.8 mph S2.9 kmh S 3.1 mph5.0 kmh 29.69 in1005.4 mb 0.00 in0.0 mm 0.00 in0.0 mm 0.00 in0.0 mm
07:53 AM 78.3°F25.7°C 53.9°F12.2°C 43% 1.5 mph S2.4 kmh S 3.1 mph5.0 kmh 29.69 in1005.4 mb 0.00 in0.0 mm 0.00 in0.0 mm 0.00 in0.0 mm
07:52 AM 78.3°F25.7°C 53.9°F12.2°C 43% 1.5 mph S2.4 kmh S 3.1 mph5.0 kmh 29.69 in1005.4 mb 0.00 in0.0 mm 0.00 in0.0 mm 0.00 in0.0 mm
07:48 AM 79.2°F26.2°C 54.1°F12.3°C 42% 1.2 mph S1.9 kmh S 3.1 mph5.0 kmh 29.68 in1005.1 mb 0.00 in0.0 mm 0.00 in0.0 mm 0.00 in0.0 mm
07:47 AM 79.2°F26.2°C 54.1°F12.3°C 42% 1.2 mph S1.9 kmh S 3.1 mph5.0 kmh 29.68 in1005.1 mb 0.00 in0.0 mm 0.00 in0.0 mm 0.00 in0.0 mm
07:43 AM 79.2°F26.2°C 54.7°F12.6°C 43% 1.2 mph S1.9 kmh S 3.1 mph5.0 kmh 29.69 in1005.4 mb 0.00 in0.0 mm 0.00 in0.0 mm 0.00 in0.0 mm
07:42 AM 79.2°F26.2°C 54.7°F12.6°C 43% 1.2 mph S1.9 kmh S 3.1 mph5.0 kmh 29.69 in1005.4 mb 0.00 in0.0 mm 0.00 in0.0 mm 0.00 in0.0 mm
07:38 AM 78.4°F25.8°C 54.7°F12.6°C 44% 1.2 mph S1.9 kmh S 3.1 mph5.0 kmh 29.69 in1005.4 mb 0.00 in0.0 mm 0.00 in0.0 mm 0.00 in0.0 mm
07:37 AM 78.4°F25.8°C 54.7°F12.6°C 44% 1.2 mph S1.9 kmh S 3.1 mph5.0 kmh 29.69 in1005.4 mb 0.00 in0.0 mm 0.00 in0.0 mm 0.00 in0.0 mm
07:33 AM 78.1°F25.6°C 55.6°F13.1°C 46% 1.2 mph S1.9 kmh S 3.1 mph5.0 kmh 29.68 in1005.1 mb 0.00 in0.0 mm 0.00 in0.0 mm 0.00 in0.0 mm
07:32 AM 78.1°F25.6°C 55.6°F13.1°C 46% 1.2 mph S1.9 kmh S 3.1 mph5.0 kmh 29.68 in1005.1 mb 0.00 in0.0 mm 0.00 in0.0 mm 0.00 in0.0 mm
07:28 AM 77.5°F25.3°C 54.5°F12.5°C 45% 1.0 mph S1.6 kmh S 2.2 mph3.5 kmh 29.68 in1005.1 mb 0.00 in0.0 mm 0.00 in0.0 mm 0.00 in0.0 mm
07:27 AM 77.5°F25.3°C 54.5°F12.5°C 45% 1.0 mph S1.6 kmh S 2.2 mph3.5 kmh 29.68 in1005.1 mb 0.00 in0.0 mm 0.00 in0.0 mm 0.00 in0.0 mm
07:23 AM 77.5°F25.3°C 54.5°F12.5°C 45% 1.1 mph S1.8 kmh S 2.2 mph3.5 kmh 29.68 in1005.1 mb 0.00 in0.0 mm 0.00 in0.0 mm 0.00 in0.0 mm
07:22 AM 77.5°F25.3°C 54.5°F12.5°C 45% 1.1 mph S1.8 kmh S 2.2 mph3.5 kmh 29.68 in1005.1 mb 0.00 in0.0 mm 0.00 in0.0 mm 0.00 in0.0 mm
07:18 AM 77.5°F25.3°C 55.1°F12.8°C 46% 1.6 mph S2.6 kmh S 2.2 mph3.5 kmh 29.68 in1005.1 mb 0.00 in0.0 mm 0.00 in0.0 mm 0.00 in0.0 mm
07:17 AM 77.5°F25.3°C 55.1°F12.8°C 46% 1.6 mph S2.6 kmh S 2.2 mph3.5 kmh 29.68 in1005.1 mb 0.00 in0.0 mm 0.00 in0.0 mm 0.00 in0.0 mm
07:12 AM 78.1°F25.6°C 54.4°F12.4°C 44% 0.5 mph S0.8 kmh S 2.2 mph3.5 kmh 29.68 in1005.1 mb 0.00 in0.0 mm 0.00 in0.0 mm 0.00 in0.0 mm
07:11 AM 78.1°F25.6°C 54.4°F12.4°C 44% 0.5 mph S0.8 kmh S 2.2 mph3.5 kmh 29.68 in1005.1 mb 0.00 in0.0 mm 0.00 in0.0 mm 0.00 in0.0 mm
07:07 AM 77.2°F25.1°C 55.4°F13.0°C 47% 0.2 mph S0.3 kmh S 1.6 mph2.6 kmh 29.68 in1005.1 mb 0.00 in0.0 mm 0.00 in0.0 mm 0.00 in0.0 mm
07:06 AM 77.2°F25.1°C 55.4°F13.0°C 47% 0.2 mph S0.3 kmh S 1.6 mph2.6 kmh 29.68 in1005.1 mb 0.00 in0.0 mm 0.00 in0.0 mm 0.00 in0.0 mm
07:02 AM 77.2°F25.1°C 55.4°F13.0°C 47% 0.4 mph S0.6 kmh S 2.2 mph3.5 kmh 29.68 in1005.1 mb 0.00 in0.0 mm 0.00 in0.0 mm 0.00 in0.0 mm
07:01 AM 77.2°F25.1°C 55.4°F13.0°C 47% 0.4 mph S0.6 kmh S 2.2 mph3.5 kmh 29.68 in1005.1 mb 0.00 in0.0 mm 0.00 in0.0 mm 0.00 in0.0 mm
06:57 AM 76.5°F24.7°C 55.3°F12.9°C 48% 1.0 mph S1.6 kmh S 2.2 mph3.5 kmh 29.68 in1005.1 mb 0.00 in0.0 mm 0.00 in0.0 mm 0.00 in0.0 mm
06:56 AM 76.5°F24.7°C 55.3°F12.9°C 48% 1.0 mph S1.6 kmh S 2.2 mph3.5 kmh 29.68 in1005.1 mb 0.00 in0.0 mm 0.00 in0.0 mm 0.00 in0.0 mm
06:52 AM 74.8°F23.8°C 55.5°F13.1°C 51% 1.0 mph S1.6 kmh S 3.1 mph5.0 kmh 29.68 in1005.1 mb 0.00 in0.0 mm 0.00 in0.0 mm 0.00 in0.0 mm
06:51 AM 74.8°F23.8°C 55.5°F13.1°C 51% 1.0 mph S1.6 kmh S 3.1 mph5.0 kmh 29.68 in1005.1 mb 0.00 in0.0 mm 0.00 in0.0 mm 0.00 in0.0 mm
06:47 AM 73.4°F23.0°C 54.7°F12.6°C 52% 1.3 mph S2.1 kmh S 3.1 mph5.0 kmh 29.68 in1005.1 mb 0.00 in0.0 mm 0.00 in0.0 mm 0.00 in0.0 mm
06:46 AM 73.4°F23.0°C 54.7°F12.6°C 52% 1.3 mph S2.1 kmh S 3.1 mph5.0 kmh 29.68 in1005.1 mb 0.00 in0.0 mm 0.00 in0.0 mm 0.00 in0.0 mm
06:42 AM 72.9°F22.7°C 54.7°F12.6°C 53% 1.3 mph S2.1 kmh S 3.1 mph5.0 kmh 29.68 in1005.1 mb 0.00 in0.0 mm 0.00 in0.0 mm 0.00 in0.0 mm
06:41 AM 72.9°F22.7°C 54.7°F12.6°C 53% 1.3 mph S2.1 kmh S 3.1 mph5.0 kmh 29.68 in1005.1 mb 0.00 in0.0 mm 0.00 in0.0 mm 0.00 in0.0 mm
06:37 AM 71.8°F22.1°C 54.2°F12.3°C 54% 1.6 mph SSW2.6 kmh SSW 2.2 mph3.5 kmh 29.68 in1005.1 mb 0.00 in0.0 mm 0.00 in0.0 mm 0.00 in0.0 mm
06:36 AM 71.8°F22.1°C 54.2°F12.3°C 54% 1.6 mph SSW2.6 kmh SSW 2.2 mph3.5 kmh 29.68 in1005.1 mb 0.00 in0.0 mm 0.00 in0.0 mm 0.00 in0.0 mm
06:32 AM 71.1°F21.7°C 54.6°F12.6°C 56% 1.3 mph SSW2.1 kmh SSW 2.2 mph3.5 kmh 29.67 in1004.7 mb 0.00 in0.0 mm 0.00 in0.0 mm 0.00 in0.0 mm
06:31 AM 71.1°F21.7°C 54.6°F12.6°C 56% 1.3 mph SSW2.1 kmh SSW 2.2 mph3.5 kmh 29.67 in1004.7 mb 0.00 in0.0 mm 0.00 in0.0 mm 0.00 in0.0 mm
06:27 AM 69.8°F21.0°C 54.4°F12.4°C 58% 1.5 mph SSW2.4 kmh SSW 3.1 mph5.0 kmh 29.67 in1004.7 mb 0.00 in0.0 mm 0.00 in0.0 mm 0.00 in0.0 mm
06:26 AM 69.8°F21.0°C 54.4°F12.4°C 58% 1.5 mph SSW2.4 kmh SSW 3.1 mph5.0 kmh 29.67 in1004.7 mb 0.00 in0.0 mm 0.00 in0.0 mm 0.00 in0.0 mm
06:22 AM 69.4°F20.8°C 53.1°F11.7°C 56% 1.5 mph S2.4 kmh S 3.1 mph5.0 kmh 29.67 in1004.7 mb 0.00 in0.0 mm 0.00 in0.0 mm 0.00 in0.0 mm
06:21 AM 69.4°F20.8°C 53.1°F11.7°C 56% 1.5 mph S2.4 kmh S 3.1 mph5.0 kmh 29.67 in1004.7 mb 0.00 in0.0 mm 0.00 in0.0 mm 0.00 in0.0 mm
06:17 AM 70.2°F21.2°C 55.2°F12.9°C 59% 1.8 mph S2.9 kmh S 3.1 mph5.0 kmh 29.67 in1004.7 mb 0.00 in0.0 mm 0.00 in0.0 mm 0.00 in0.0 mm
06:16 AM 70.2°F21.2°C 55.2°F12.9°C 59% 1.8 mph S2.9 kmh S 3.1 mph5.0 kmh 29.67 in1004.7 mb 0.00 in0.0 mm 0.00 in0.0 mm 0.00 in0.0 mm
06:12 AM 69.4°F20.8°C 54.9°F12.7°C 60% 1.6 mph SSW2.6 kmh SSW 3.1 mph5.0 kmh 29.67 in1004.7 mb 0.00 in0.0 mm 0.00 in0.0 mm 0.00 in0.0 mm
06:11 AM 69.4°F20.8°C 54.9°F12.7°C 60% 1.6 mph SSW2.6 kmh SSW 3.1 mph5.0 kmh 29.67 in1004.7 mb 0.00 in0.0 mm 0.00 in0.0 mm 0.00 in0.0 mm
06:07 AM 67.6°F19.8°C 53.7°F12.1°C 61% 2.1 mph SSW3.4 kmh SSW 3.8 mph6.1 kmh 29.67 in1004.7 mb 0.00 in0.0 mm 0.00 in0.0 mm 0.00 in0.0 mm
06:06 AM 67.6°F19.8°C 53.7°F12.1°C 61% 2.1 mph SSW3.4 kmh SSW 3.8 mph6.1 kmh 29.67 in1004.7 mb 0.00 in0.0 mm 0.00 in0.0 mm 0.00 in0.0 mm
06:02 AM 67.1°F19.5°C 53.6°F12.0°C 62% 1.8 mph S2.9 kmh S 3.8 mph6.1 kmh 29.67 in1004.7 mb 0.00 in0.0 mm 0.00 in0.0 mm 0.00 in0.0 mm
06:01 AM 67.1°F19.5°C 53.6°F12.0°C 62% 1.8 mph S2.9 kmh S 3.8 mph6.1 kmh 29.67 in1004.7 mb 0.00 in0.0 mm 0.00 in0.0 mm 0.00 in0.0 mm
05:57 AM 68.0°F20.0°C 54.9°F12.7°C 63% 1.5 mph S2.4 kmh S 3.8 mph6.1 kmh 29.67 in1004.7 mb 0.00 in0.0 mm 0.00 in0.0 mm 0.00 in0.0 mm
05:56 AM 68.0°F20.0°C 54.9°F12.7°C 63% 1.5 mph S2.4 kmh S 3.8 mph6.1 kmh 29.67 in1004.7 mb 0.00 in0.0 mm 0.00 in0.0 mm 0.00 in0.0 mm
05:52 AM 67.5°F19.7°C 56.1°F13.4°C 67% 1.0 mph S1.6 kmh S 2.2 mph3.5 kmh 29.67 in1004.7 mb 0.00 in0.0 mm 0.00 in0.0 mm 0.00 in0.0 mm
05:51 AM 67.5°F19.7°C 56.1°F13.4°C 67% 1.0 mph S1.6 kmh S 2.2 mph3.5 kmh 29.67 in1004.7 mb 0.00 in0.0 mm 0.00 in0.0 mm 0.00 in0.0 mm
05:47 AM 66.0°F18.9°C 56.0°F13.3°C 70% 1.0 mph S1.6 kmh S 2.2 mph3.5 kmh 29.67 in1004.7 mb 0.00 in0.0 mm 0.00 in0.0 mm 0.00 in0.0 mm
05:46 AM 66.0°F18.9°C 56.0°F13.3°C 70% 1.0 mph S1.6 kmh S 2.2 mph3.5 kmh 29.67 in1004.7 mb 0.00 in0.0 mm 0.00 in0.0 mm 0.00 in0.0 mm
05:42 AM 65.1°F18.4°C 55.9°F13.3°C 72% 1.0 mph S1.6 kmh S 2.2 mph3.5 kmh 29.67 in1004.7 mb 0.00 in0.0 mm 0.00 in0.0 mm 0.00 in0.0 mm
05:41 AM 65.1°F18.4°C 55.9°F13.3°C 72% 1.0 mph S1.6 kmh S 2.2 mph3.5 kmh 29.67 in1004.7 mb 0.00 in0.0 mm 0.00 in0.0 mm 0.00 in0.0 mm
05:37 AM 64.2°F17.9°C 56.1°F13.4°C 75% 1.0 mph S1.6 kmh S 2.2 mph3.5 kmh 29.67 in1004.7 mb 0.00 in0.0 mm 0.00 in0.0 mm 0.00 in0.0 mm
05:36 AM 64.2°F17.9°C 56.1°F13.4°C 75% 1.0 mph S1.6 kmh S 2.2 mph3.5 kmh 29.67 in1004.7 mb 0.00 in0.0 mm 0.00 in0.0 mm 0.00 in0.0 mm
05:32 AM 62.8°F17.1°C 55.8°F13.2°C 78% 1.3 mph S2.1 kmh S 3.1 mph5.0 kmh 29.68 in1005.1 mb 0.00 in0.0 mm 0.00 in0.0 mm 0.00 in0.0 mm
05:31 AM 62.8°F17.1°C 55.8°F13.2°C 78% 1.3 mph S2.1 kmh S 3.1 mph5.0 kmh 29.68 in1005.1 mb 0.00 in0.0 mm 0.00 in0.0 mm 0.00 in0.0 mm
05:27 AM 61.2°F16.2°C 54.9°F12.7°C 80% 1.3 mph S2.1 kmh S 3.1 mph5.0 kmh 29.68 in1005.1 mb 0.00 in0.0 mm 0.00 in0.0 mm 0.00 in0.0 mm
05:26 AM 61.2°F16.2°C 54.9°F12.7°C 80% 1.3 mph S2.1 kmh S 3.1 mph5.0 kmh 29.68 in1005.1 mb 0.00 in0.0 mm 0.00 in0.0 mm 0.00 in0.0 mm
05:22 AM 60.3°F15.7°C 54.4°F12.4°C 81% 1.5 mph SSW2.4 kmh SSW 3.8 mph6.1 kmh 29.67 in1004.7 mb 0.00 in0.0 mm 0.00 in0.0 mm 0.00 in0.0 mm
05:21 AM 60.3°F15.7°C 54.4°F12.4°C 81% 1.5 mph SSW2.4 kmh SSW 3.8 mph6.1 kmh 29.67 in1004.7 mb 0.00 in0.0 mm 0.00 in0.0 mm 0.00 in0.0 mm
05:17 AM 59.9°F15.5°C 54.1°F12.3°C 81% 1.5 mph SSW2.4 kmh SSW 3.8 mph6.1 kmh 29.67 in1004.7 mb 0.00 in0.0 mm 0.00 in0.0 mm 0.00 in0.0 mm
05:16 AM 59.9°F15.5°C 54.1°F12.3°C 81% 1.5 mph SSW2.4 kmh SSW 3.8 mph6.1 kmh 29.67 in1004.7 mb 0.00 in0.0 mm 0.00 in0.0 mm 0.00 in0.0 mm
05:12 AM 59.9°F15.5°C 54.1°F12.3°C 81% 1.8 mph SSW2.9 kmh SSW 3.8 mph6.1 kmh 29.67 in1004.7 mb 0.00 in0.0 mm 0.00 in0.0 mm 0.00 in0.0 mm
05:11 AM 59.9°F15.5°C 54.1°F12.3°C 81% 1.8 mph SSW2.9 kmh SSW 3.8 mph6.1 kmh 29.67 in1004.7 mb 0.00 in0.0 mm 0.00 in0.0 mm 0.00 in0.0 mm
05:07 AM 60.1°F15.6°C 54.9°F12.7°C 83% 1.8 mph S2.9 kmh S 3.1 mph5.0 kmh 29.68 in1005.1 mb 0.00 in0.0 mm 0.00 in0.0 mm 0.00 in0.0 mm
05:06 AM 60.1°F15.6°C 54.9°F12.7°C 83% 1.8 mph S2.9 kmh S 3.1 mph5.0 kmh 29.68 in1005.1 mb 0.00 in0.0 mm 0.00 in0.0 mm 0.00 in0.0 mm
05:02 AM 60.1°F15.6°C 54.9°F12.7°C 83% 2.0 mph S3.2 kmh S 3.1 mph5.0 kmh 29.67 in1004.7 mb 0.00 in0.0 mm 0.00 in0.0 mm 0.00 in0.0 mm
05:01 AM 60.1°F15.6°C 54.9°F12.7°C 83% 2.0 mph S3.2 kmh S 3.1 mph5.0 kmh 29.67 in1004.7 mb 0.00 in0.0 mm 0.00 in0.0 mm 0.00 in0.0 mm
04:57 AM 60.1°F15.6°C 55.2°F12.9°C 84% 2.2 mph S3.5 kmh S 3.8 mph6.1 kmh 29.67 in1004.7 mb 0.00 in0.0 mm 0.00 in0.0 mm 0.00 in0.0 mm
04:56 AM 60.1°F15.6°C 55.2°F12.9°C 84% 2.2 mph S3.5 kmh S 3.8 mph6.1 kmh 29.67 in1004.7 mb 0.00 in0.0 mm 0.00 in0.0 mm 0.00 in0.0 mm
04:52 AM 59.9°F15.5°C 55.7°F13.2°C 86% 2.0 mph S3.2 kmh S 3.8 mph6.1 kmh 29.67 in1004.7 mb 0.00 in0.0 mm 0.00 in0.0 mm 0.00 in0.0 mm
04:51 AM 59.9°F15.5°C 55.7°F13.2°C 86% 2.0 mph S3.2 kmh S 3.8 mph6.1 kmh 29.67 in1004.7 mb 0.00 in0.0 mm 0.00 in0.0 mm 0.00 in0.0 mm
04:47 AM 59.7°F15.4°C 55.8°F13.2°C 87% 1.5 mph S2.4 kmh S 3.8 mph6.1 kmh 29.67 in1004.7 mb 0.00 in0.0 mm 0.00 in0.0 mm 0.00 in0.0 mm
04:46 AM 59.7°F15.4°C 55.8°F13.2°C 87% 1.5 mph S2.4 kmh S 3.8 mph6.1 kmh 29.67 in1004.7 mb 0.00 in0.0 mm 0.00 in0.0 mm 0.00 in0.0 mm
04:42 AM 59.5°F15.3°C 56.0°F13.3°C 88% 1.0 mph S1.6 kmh S 3.1 mph5.0 kmh 29.67 in1004.7 mb 0.00 in0.0 mm 0.00 in0.0 mm 0.00 in0.0 mm
04:41 AM 59.5°F15.3°C 56.0°F13.3°C 88% 1.0 mph S1.6 kmh S 3.1 mph5.0 kmh 29.67 in1004.7 mb 0.00 in0.0 mm 0.00 in0.0 mm 0.00 in0.0 mm
04:37 AM 59.7°F15.4°C 56.2°F13.4°C 88% 0.7 mph S1.1 kmh S 2.2 mph3.5 kmh 29.67 in1004.7 mb 0.00 in0.0 mm 0.00 in0.0 mm 0.00 in0.0 mm
04:36 AM 59.7°F15.4°C 56.2°F13.4°C 88% 0.7 mph S1.1 kmh S 2.2 mph3.5 kmh 29.67 in1004.7 mb 0.00 in0.0 mm 0.00 in0.0 mm 0.00 in0.0 mm
04:32 AM 59.9°F15.5°C 56.3°F13.5°C 88% 0.7 mph S1.1 kmh S 1.6 mph2.6 kmh 29.67 in1004.7 mb 0.00 in0.0 mm 0.00 in0.0 mm 0.00 in0.0 mm
04:31 AM 59.9°F15.5°C 56.3°F13.5°C 88% 0.7 mph S1.1 kmh S 1.6 mph2.6 kmh 29.67 in1004.7 mb 0.00 in0.0 mm 0.00 in0.0 mm 0.00 in0.0 mm
04:27 AM 60.1°F15.6°C 56.5°F13.6°C 88% 0.7 mph S1.1 kmh S 2.2 mph3.5 kmh 29.67 in1004.7 mb 0.00 in0.0 mm 0.00 in0.0 mm 0.00 in0.0 mm
04:26 AM 60.1°F15.6°C 56.5°F13.6°C 88% 0.7 mph S1.1 kmh S 2.2 mph3.5 kmh 29.67 in1004.7 mb 0.00 in0.0 mm 0.00 in0.0 mm 0.00 in0.0 mm
04:22 AM 60.3°F15.7°C 56.4°F13.6°C 87% 1.0 mph S1.6 kmh S 2.2 mph3.5 kmh 29.67 in1004.7 mb 0.00 in0.0 mm 0.00 in0.0 mm 0.00 in0.0 mm
04:21 AM 60.3°F15.7°C 56.4°F13.6°C 87% 1.0 mph S1.6 kmh S 2.2 mph3.5 kmh 29.67 in1004.7 mb 0.00 in0.0 mm 0.00 in0.0 mm 0.00 in0.0 mm
04:17 AM 60.4°F15.8°C 56.6°F13.7°C 87% 1.5 mph S2.4 kmh S 3.8 mph6.1 kmh 29.67 in1004.7 mb 0.00 in0.0 mm 0.00 in0.0 mm 0.00 in0.0 mm
04:16 AM 60.4°F15.8°C 56.6°F13.7°C 87% 1.5 mph S2.4 kmh S 3.8 mph6.1 kmh 29.67 in1004.7 mb 0.00 in0.0 mm 0.00 in0.0 mm 0.00 in0.0 mm
04:12 AM 60.6°F15.9°C 57.0°F13.9°C 88% 1.8 mph S2.9 kmh S 3.8 mph6.1 kmh 29.67 in1004.7 mb 0.00 in0.0 mm 0.00 in0.0 mm 0.00 in0.0 mm
04:11 AM 60.6°F15.9°C 57.0°F13.9°C 88% 1.8 mph S2.9 kmh S 3.8 mph6.1 kmh 29.67 in1004.7 mb 0.00 in0.0 mm 0.00 in0.0 mm 0.00 in0.0 mm
04:07 AM 60.8°F16.0°C 57.5°F14.2°C 89% 1.8 mph S2.9 kmh S 3.8 mph6.1 kmh 29.67 in1004.7 mb 0.00 in0.0 mm 0.00 in0.0 mm 0.00 in0.0 mm
04:06 AM 60.8°F16.0°C 57.5°F14.2°C 89% 1.8 mph S2.9 kmh S 3.8 mph6.1 kmh 29.67 in1004.7 mb 0.00 in0.0 mm 0.00 in0.0 mm 0.00 in0.0 mm
04:02 AM 60.8°F16.0°C 57.5°F14.2°C 89% 1.0 mph S1.6 kmh S 3.1 mph5.0 kmh 29.67 in1004.7 mb 0.00 in0.0 mm 0.00 in0.0 mm 0.00 in0.0 mm
04:01 AM 60.8°F16.0°C 57.5°F14.2°C 89% 1.0 mph S1.6 kmh S 3.1 mph5.0 kmh 29.67 in1004.7 mb 0.00 in0.0 mm 0.00 in0.0 mm 0.00 in0.0 mm
03:57 AM 60.8°F16.0°C 57.5°F14.2°C 89% 0.5 mph S0.8 kmh S 2.2 mph3.5 kmh 29.67 in1004.7 mb 0.00 in0.0 mm 0.00 in0.0 mm 0.00 in0.0 mm
03:56 AM 60.8°F16.0°C 57.5°F14.2°C 89% 0.5 mph S0.8 kmh S 2.2 mph3.5 kmh 29.67 in1004.7 mb 0.00 in0.0 mm 0.00 in0.0 mm 0.00 in0.0 mm
03:52 AM 60.8°F16.0°C 57.5°F14.2°C 89% 0.2 mph S0.3 kmh S 2.2 mph3.5 kmh 29.67 in1004.7 mb 0.00 in0.0 mm 0.00 in0.0 mm 0.00 in0.0 mm
03:51 AM 60.8°F16.0°C 57.5°F14.2°C 89% 0.2 mph S0.3 kmh S 2.2 mph3.5 kmh 29.67 in1004.7 mb 0.00 in0.0 mm 0.00 in0.0 mm 0.00 in0.0 mm
03:47 AM 60.8°F16.0°C 57.5°F14.2°C 89% 0.7 mph S1.1 kmh S 2.2 mph3.5 kmh 29.67 in1004.7 mb 0.00 in0.0 mm 0.00 in0.0 mm 0.00 in0.0 mm
03:46 AM 60.8°F16.0°C 57.5°F14.2°C 89% 0.7 mph S1.1 kmh S 2.2 mph3.5 kmh 29.67 in1004.7 mb 0.00 in0.0 mm 0.00 in0.0 mm 0.00 in0.0 mm
03:42 AM 61.0°F16.1°C 58.0°F14.4°C 90% 1.0 mph S1.6 kmh S 2.2 mph3.5 kmh 29.67 in1004.7 mb 0.00 in0.0 mm 0.00 in0.0 mm 0.00 in0.0 mm
03:41 AM 61.0°F16.1°C 58.0°F14.4°C 90% 1.0 mph S1.6 kmh S 2.2 mph3.5 kmh 29.67 in1004.7 mb 0.00 in0.0 mm 0.00 in0.0 mm 0.00 in0.0 mm
03:37 AM 61.2°F16.2°C 58.2°F14.6°C 90% 1.5 mph S2.4 kmh S 3.1 mph5.0 kmh 29.67 in1004.7 mb 0.00 in0.0 mm 0.00 in0.0 mm 0.00 in0.0 mm
03:36 AM 61.2°F16.2°C 58.2°F14.6°C 90% 1.5 mph S2.4 kmh S 3.1 mph5.0 kmh 29.67 in1004.7 mb 0.00 in0.0 mm 0.00 in0.0 mm 0.00 in0.0 mm
03:32 AM 61.2°F16.2°C 58.2°F14.6°C 90% 1.7 mph S2.7 kmh S 3.1 mph5.0 kmh 29.67 in1004.7 mb 0.00 in0.0 mm 0.00 in0.0 mm 0.00 in0.0 mm
03:31 AM 61.2°F16.2°C 58.2°F14.6°C 90% 1.7 mph S2.7 kmh S 3.1 mph5.0 kmh 29.67 in1004.7 mb 0.00 in0.0 mm 0.00 in0.0 mm 0.00 in0.0 mm
03:27 AM 61.2°F16.2°C 58.2°F14.6°C 90% 1.7 mph S2.7 kmh S 3.1 mph5.0 kmh 29.67 in1004.7 mb 0.00 in0.0 mm 0.00 in0.0 mm 0.00 in0.0 mm
03:26 AM 61.2°F16.2°C 58.2°F14.6°C 90% 1.7 mph S2.7 kmh S 3.1 mph5.0 kmh 29.67 in1004.7 mb 0.00 in0.0 mm 0.00 in0.0 mm 0.00 in0.0 mm
03:22 AM 61.2°F16.2°C 57.9°F14.4°C 89% 1.7 mph SSW2.7 kmh SSW 3.1 mph5.0 kmh 29.67 in1004.7 mb 0.00 in0.0 mm 0.00 in0.0 mm 0.00 in0.0 mm
03:21 AM 61.2°F16.2°C 57.9°F14.4°C 89% 1.7 mph SSW2.7 kmh SSW 3.1 mph5.0 kmh 29.67 in1004.7 mb 0.00 in0.0 mm 0.00 in0.0 mm 0.00 in0.0 mm
03:17 AM 61.2°F16.2°C 57.9°F14.4°C 89% 1.5 mph SW2.4 kmh SW 3.1 mph5.0 kmh 29.68 in1005.1 mb 0.00 in0.0 mm 0.00 in0.0 mm 0.00 in0.0 mm
03:16 AM 61.2°F16.2°C 57.9°F14.4°C 89% 1.5 mph SW2.4 kmh SW 3.1 mph5.0 kmh 29.68 in1005.1 mb 0.00 in0.0 mm 0.00 in0.0 mm 0.00 in0.0 mm
03:12 AM 61.3°F16.3°C 58.1°F14.5°C 89% 1.8 mph SW2.9 kmh SW 3.1 mph5.0 kmh 29.68 in1005.1 mb 0.00 in0.0 mm 0.00 in0.0 mm 0.00 in0.0 mm
03:11 AM 61.3°F16.3°C 58.1°F14.5°C 89% 1.8 mph SW2.9 kmh SW 3.1 mph5.0 kmh 29.68 in1005.1 mb 0.00 in0.0 mm 0.00 in0.0 mm 0.00 in0.0 mm
03:07 AM 61.3°F16.3°C 58.1°F14.5°C 89% 1.0 mph SW1.6 kmh SW 2.2 mph3.5 kmh 29.68 in1005.1 mb 0.00 in0.0 mm 0.00 in0.0 mm 0.00 in0.0 mm
03:06 AM 61.3°F16.3°C 58.1°F14.5°C 89% 1.0 mph SW1.6 kmh SW 2.2 mph3.5 kmh 29.68 in1005.1 mb 0.00 in0.0 mm 0.00 in0.0 mm 0.00 in0.0 mm
03:02 AM 61.3°F16.3°C 58.1°F14.5°C 89% 0.5 mph SW0.8 kmh SW 2.2 mph3.5 kmh 29.68 in1005.1 mb 0.00 in0.0 mm 0.00 in0.0 mm 0.00 in0.0 mm
03:01 AM 61.3°F16.3°C 58.1°F14.5°C 89% 0.5 mph SW0.8 kmh SW 2.2 mph3.5 kmh 29.68 in1005.1 mb 0.00 in0.0 mm 0.00 in0.0 mm 0.00 in0.0 mm
02:57 AM 61.3°F16.3°C 58.1°F14.5°C 89% 0.5 mph SW0.8 kmh SW 2.2 mph3.5 kmh 29.68 in1005.1 mb 0.00 in0.0 mm 0.00 in0.0 mm 0.00 in0.0 mm
02:56 AM 61.3°F16.3°C 58.1°F14.5°C 89% 0.5 mph SW0.8 kmh SW 2.2 mph3.5 kmh 29.68 in1005.1 mb 0.00 in0.0 mm 0.00 in0.0 mm 0.00 in0.0 mm
02:52 AM 61.7°F16.5°C 58.7°F14.8°C 90% 1.0 mph SW1.6 kmh SW 2.2 mph3.5 kmh 29.68 in1005.1 mb 0.00 in0.0 mm 0.00 in0.0 mm 0.00 in0.0 mm
02:51 AM 61.7°F16.5°C 58.7°F14.8°C 90% 1.0 mph SW1.6 kmh SW 2.2 mph3.5 kmh 29.68 in1005.1 mb 0.00 in0.0 mm 0.00 in0.0 mm 0.00 in0.0 mm
02:47 AM 61.7°F16.5°C 58.7°F14.8°C 90% 1.0 mph SW1.6 kmh SW 2.2 mph3.5 kmh 29.68 in1005.1 mb 0.00 in0.0 mm 0.00 in0.0 mm 0.00 in0.0 mm
02:46 AM 61.7°F16.5°C 58.7°F14.8°C 90% 1.0 mph SW1.6 kmh SW 2.2 mph3.5 kmh 29.68 in1005.1 mb 0.00 in0.0 mm 0.00 in0.0 mm 0.00 in0.0 mm
02:42 AM 61.7°F16.5°C 58.4°F14.7°C 89% 0.7 mph SW1.1 kmh SW 2.2 mph3.5 kmh 29.68 in1005.1 mb 0.00 in0.0 mm 0.00 in0.0 mm 0.00 in0.0 mm
02:41 AM 61.7°F16.5°C 58.4°F14.7°C 89% 0.7 mph SW1.1 kmh SW 2.2 mph3.5 kmh 29.68 in1005.1 mb 0.00 in0.0 mm 0.00 in0.0 mm 0.00 in0.0 mm
02:37 AM 62.1°F16.7°C 58.8°F14.9°C 89% 1.0 mph SW1.6 kmh SW 3.8 mph6.1 kmh 29.68 in1005.1 mb 0.00 in0.0 mm 0.00 in0.0 mm 0.00 in0.0 mm
02:36 AM 62.1°F16.7°C 58.8°F14.9°C 89% 1.0 mph SW1.6 kmh SW 3.8 mph6.1 kmh 29.68 in1005.1 mb 0.00 in0.0 mm 0.00 in0.0 mm 0.00 in0.0 mm
02:32 AM 62.2°F16.8°C 59.0°F15.0°C 89% 1.2 mph SW1.9 kmh SW 3.8 mph6.1 kmh 29.68 in1005.1 mb 0.00 in0.0 mm 0.00 in0.0 mm 0.00 in0.0 mm
02:31 AM 62.2°F16.8°C 59.0°F15.0°C 89% 1.2 mph SW1.9 kmh SW 3.8 mph6.1 kmh 29.68 in1005.1 mb 0.00 in0.0 mm 0.00 in0.0 mm 0.00 in0.0 mm
02:27 AM 62.4°F16.9°C 58.8°F14.9°C 88% 1.0 mph SW1.6 kmh SW 3.8 mph6.1 kmh 29.68 in1005.1 mb 0.00 in0.0 mm 0.00 in0.0 mm 0.00 in0.0 mm
02:26 AM 62.4°F16.9°C 58.8°F14.9°C 88% 1.0 mph SW1.6 kmh SW 3.8 mph6.1 kmh 29.68 in1005.1 mb 0.00 in0.0 mm 0.00 in0.0 mm 0.00 in0.0 mm
02:22 AM 62.6°F17.0°C 59.0°F15.0°C 88% 0.7 mph SW1.1 kmh SW 2.2 mph3.5 kmh 29.68 in1005.1 mb 0.00 in0.0 mm 0.00 in0.0 mm 0.00 in0.0 mm
02:21 AM 62.6°F17.0°C 59.0°F15.0°C 88% 0.7 mph SW1.1 kmh SW 2.2 mph3.5 kmh 29.68 in1005.1 mb 0.00 in0.0 mm 0.00 in0.0 mm 0.00 in0.0 mm
02:17 AM 62.8°F17.1°C 59.5°F15.3°C 89% 1.3 mph SW2.1 kmh SW 3.8 mph6.1 kmh 29.68 in1005.1 mb 0.00 in0.0 mm 0.00 in0.0 mm 0.00 in0.0 mm
02:16 AM 62.8°F17.1°C 59.5°F15.3°C 89% 1.3 mph SW2.1 kmh SW 3.8 mph6.1 kmh 29.68 in1005.1 mb 0.00 in0.0 mm 0.00 in0.0 mm 0.00 in0.0 mm
02:12 AM 62.8°F17.1°C 59.2°F15.1°C 88% 1.3 mph SW2.1 kmh SW 3.8 mph6.1 kmh 29.68 in1005.1 mb 0.00 in0.0 mm 0.00 in0.0 mm 0.00 in0.0 mm
02:11 AM 62.8°F17.1°C 59.2°F15.1°C 88% 1.3 mph SW2.1 kmh SW 3.8 mph6.1 kmh 29.68 in1005.1 mb 0.00 in0.0 mm 0.00 in0.0 mm 0.00 in0.0 mm
02:07 AM 62.8°F17.1°C 59.2°F15.1°C 88% 0.7 mph SW1.1 kmh SW 3.8 mph6.1 kmh 29.68 in1005.1 mb 0.00 in0.0 mm 0.00 in0.0 mm 0.00 in0.0 mm
02:06 AM 62.8°F17.1°C 59.2°F15.1°C 88% 0.7 mph SW1.1 kmh SW 3.8 mph6.1 kmh 29.68 in1005.1 mb 0.00 in0.0 mm 0.00 in0.0 mm 0.00 in0.0 mm
02:02 AM 63.0°F17.2°C 59.3°F15.2°C 88% 0.5 mph SW0.8 kmh SW 2.2 mph3.5 kmh 29.68 in1005.1 mb 0.00 in0.0 mm 0.00 in0.0 mm 0.00 in0.0 mm
02:01 AM 63.0°F17.2°C 59.3°F15.2°C 88% 0.5 mph SW0.8 kmh SW 2.2 mph3.5 kmh 29.68 in1005.1 mb 0.00 in0.0 mm 0.00 in0.0 mm 0.00 in0.0 mm
01:57 AM 63.1°F17.3°C 59.5°F15.3°C 88% 1.3 mph SW2.1 kmh SW 3.8 mph6.1 kmh 29.68 in1005.1 mb 0.00 in0.0 mm 0.00 in0.0 mm 0.00 in0.0 mm
01:56 AM 63.1°F17.3°C 59.5°F15.3°C 88% 1.3 mph SW2.1 kmh SW 3.8 mph6.1 kmh 29.68 in1005.1 mb 0.00 in0.0 mm 0.00 in0.0 mm 0.00 in0.0 mm
01:52 AM 63.3°F17.4°C 59.4°F15.2°C 87% 2.0 mph SW3.2 kmh SW 3.8 mph6.1 kmh 29.68 in1005.1 mb 0.00 in0.0 mm 0.00 in0.0 mm 0.00 in0.0 mm
01:51 AM 63.3°F17.4°C 59.4°F15.2°C 87% 2.0 mph SW3.2 kmh SW 3.8 mph6.1 kmh 29.68 in1005.1 mb 0.00 in0.0 mm 0.00 in0.0 mm 0.00 in0.0 mm
01:47 AM 63.5°F17.5°C 59.6°F15.3°C 87% 2.0 mph SW3.2 kmh SW 3.8 mph6.1 kmh 29.68 in1005.1 mb 0.00 in0.0 mm 0.00 in0.0 mm 0.00 in0.0 mm
01:46 AM 63.5°F17.5°C 59.6°F15.3°C 87% 2.0 mph SW3.2 kmh SW 3.8 mph6.1 kmh 29.68 in1005.1 mb 0.00 in0.0 mm 0.00 in0.0 mm 0.00 in0.0 mm
01:42 AM 63.7°F17.6°C 59.4°F15.2°C 86% 1.8 mph SW2.9 kmh SW 3.8 mph6.1 kmh 29.68 in1005.1 mb 0.00 in0.0 mm 0.00 in0.0 mm 0.00 in0.0 mm
01:41 AM 63.7°F17.6°C 59.4°F15.2°C 86% 1.8 mph SW2.9 kmh SW 3.8 mph6.1 kmh 29.68 in1005.1 mb 0.00 in0.0 mm 0.00 in0.0 mm 0.00 in0.0 mm
01:37 AM 63.9°F17.7°C 59.6°F15.3°C 86% 1.6 mph SW2.6 kmh SW 3.1 mph5.0 kmh 29.68 in1005.1 mb 0.00 in0.0 mm 0.00 in0.0 mm 0.00 in0.0 mm
01:36 AM 63.9°F17.7°C 59.6°F15.3°C 86% 1.6 mph SW2.6 kmh SW 3.1 mph5.0 kmh 29.68 in1005.1 mb 0.00 in0.0 mm 0.00 in0.0 mm 0.00 in0.0 mm
01:32 AM 64.0°F17.8°C 59.8°F15.4°C 86% 1.8 mph SW2.9 kmh SW 3.8 mph6.1 kmh 29.68 in1005.1 mb 0.00 in0.0 mm 0.00 in0.0 mm 0.00 in0.0 mm
01:31 AM 64.0°F17.8°C 59.8°F15.4°C 86% 1.8 mph SW2.9 kmh SW 3.8 mph6.1 kmh 29.68 in1005.1 mb 0.00 in0.0 mm 0.00 in0.0 mm 0.00 in0.0 mm
01:27 AM 64.2°F17.9°C 59.6°F15.3°C 85% 2.0 mph SW3.2 kmh SW 3.8 mph6.1 kmh 29.68 in1005.1 mb 0.00 in0.0 mm 0.00 in0.0 mm 0.00 in0.0 mm
01:26 AM 64.2°F17.9°C 59.6°F15.3°C 85% 2.0 mph SW3.2 kmh SW 3.8 mph6.1 kmh 29.68 in1005.1 mb 0.00 in0.0 mm 0.00 in0.0 mm 0.00 in0.0 mm
01:22 AM 64.4°F18.0°C 59.8°F15.4°C 85% 1.7 mph SW2.7 kmh SW 3.8 mph6.1 kmh 29.68 in1005.1 mb 0.00 in0.0 mm 0.00 in0.0 mm 0.00 in0.0 mm
01:21 AM 64.4°F18.0°C 59.8°F15.4°C 85% 1.7 mph SW2.7 kmh SW 3.8 mph6.1 kmh 29.68 in1005.1 mb 0.00 in0.0 mm 0.00 in0.0 mm 0.00 in0.0 mm
01:17 AM 64.4°F18.0°C 59.5°F15.3°C 84% 1.0 mph SSW1.6 kmh SSW 3.8 mph6.1 kmh 29.69 in1005.4 mb 0.00 in0.0 mm 0.00 in0.0 mm 0.00 in0.0 mm
01:16 AM 64.4°F18.0°C 59.5°F15.3°C 84% 1.0 mph SSW1.6 kmh SSW 3.8 mph6.1 kmh 29.69 in1005.4 mb 0.00 in0.0 mm 0.00 in0.0 mm 0.00 in0.0 mm
01:12 AM 64.6°F18.1°C 59.3°F15.2°C 83% 0.2 mph S0.3 kmh S 2.2 mph3.5 kmh 29.69 in1005.4 mb 0.00 in0.0 mm 0.00 in0.0 mm 0.00 in0.0 mm
01:11 AM 64.6°F18.1°C 59.3°F15.2°C 83% 0.2 mph S0.3 kmh S 2.2 mph3.5 kmh 29.69 in1005.4 mb 0.00 in0.0 mm 0.00 in0.0 mm 0.00 in0.0 mm
01:07 AM 65.1°F18.4°C 59.5°F15.3°C 82% Calm Calm 0.7 mph1.1 kmh 29.69 in1005.4 mb 0.00 in0.0 mm 0.00 in0.0 mm 0.00 in0.0 mm
01:06 AM 65.1°F18.4°C 59.5°F15.3°C 82% Calm Calm 0.7 mph1.1 kmh 29.69 in1005.4 mb 0.00 in0.0 mm 0.00 in0.0 mm 0.00 in0.0 mm
01:02 AM 65.1°F18.4°C 59.5°F15.3°C 82% 0.5 mph SW0.8 kmh SW 2.2 mph3.5 kmh 29.69 in1005.4 mb 0.00 in0.0 mm 0.00 in0.0 mm 0.00 in0.0 mm
01:01 AM 65.1°F18.4°C 59.5°F15.3°C 82% 0.5 mph SW0.8 kmh SW 2.2 mph3.5 kmh 29.69 in1005.4 mb 0.00 in0.0 mm 0.00 in0.0 mm 0.00 in0.0 mm
12:57 AM 65.1°F18.4°C 59.8°F15.4°C 83% 1.0 mph SW1.6 kmh SW 2.2 mph3.5 kmh 29.69 in1005.4 mb 0.00 in0.0 mm 0.00 in0.0 mm 0.00 in0.0 mm
12:56 AM 65.1°F18.4°C 59.8°F15.4°C 83% 1.0 mph SW1.6 kmh SW 2.2 mph3.5 kmh 29.69 in1005.4 mb 0.00 in0.0 mm 0.00 in0.0 mm 0.00 in0.0 mm
12:52 AM 65.3°F18.5°C 59.7°F15.4°C 82% 1.8 mph SW2.9 kmh SW 3.1 mph5.0 kmh 29.70 in1005.8 mb 0.00 in0.0 mm 0.00 in0.0 mm 0.00 in0.0 mm
12:51 AM 65.3°F18.5°C 59.7°F15.4°C 82% 1.8 mph SW2.9 kmh SW 3.1 mph5.0 kmh 29.70 in1005.8 mb 0.00 in0.0 mm 0.00 in0.0 mm 0.00 in0.0 mm
12:47 AM 65.5°F18.6°C 59.8°F15.4°C 82% 1.8 mph SW2.9 kmh SW 3.1 mph5.0 kmh 29.69 in1005.4 mb 0.00 in0.0 mm 0.00 in0.0 mm 0.00 in0.0 mm
12:46 AM 65.5°F18.6°C 59.8°F15.4°C 82% 1.8 mph SW2.9 kmh SW 3.1 mph5.0 kmh 29.69 in1005.4 mb 0.00 in0.0 mm 0.00 in0.0 mm 0.00 in0.0 mm
12:42 AM 65.5°F18.6°C 59.8°F15.4°C 82% 1.8 mph SW2.9 kmh SW 3.1 mph5.0 kmh 29.70 in1005.8 mb 0.00 in0.0 mm 0.00 in0.0 mm 0.00 in0.0 mm
12:41 AM 65.5°F18.6°C 59.8°F15.4°C 82% 1.8 mph SW2.9 kmh SW 3.1 mph5.0 kmh 29.70 in1005.8 mb 0.00 in0.0 mm 0.00 in0.0 mm 0.00 in0.0 mm
12:37 AM 65.7°F18.7°C 59.3°F15.2°C 80% 1.8 mph SW2.9 kmh SW 3.8 mph6.1 kmh 29.70 in1005.8 mb 0.00 in0.0 mm 0.00 in0.0 mm 0.00 in0.0 mm
12:36 AM 65.7°F18.7°C 59.3°F15.2°C 80% 1.8 mph SW2.9 kmh SW 3.8 mph6.1 kmh 29.70 in1005.8 mb 0.00 in0.0 mm 0.00 in0.0 mm 0.00 in0.0 mm
12:32 AM 65.8°F18.8°C 59.5°F15.3°C 80% 2.5 mph SW4.0 kmh SW 4.5 mph7.2 kmh 29.70 in1005.8 mb 0.00 in0.0 mm 0.00 in0.0 mm 0.00 in0.0 mm
12:31 AM 65.8°F18.8°C 59.5°F15.3°C 80% 2.5 mph SW4.0 kmh SW 4.5 mph7.2 kmh 29.70 in1005.8 mb 0.00 in0.0 mm 0.00 in0.0 mm 0.00 in0.0 mm
12:27 AM 66.0°F18.9°C 59.3°F15.2°C 79% 2.2 mph SW3.5 kmh SW 4.5 mph7.2 kmh 29.70 in1005.8 mb 0.00 in0.0 mm 0.00 in0.0 mm 0.00 in0.0 mm
12:26 AM 66.0°F18.9°C 59.3°F15.2°C 79% 2.2 mph SW3.5 kmh SW 4.5 mph7.2 kmh 29.70 in1005.8 mb 0.00 in0.0 mm 0.00 in0.0 mm 0.00 in0.0 mm
12:22 AM 66.0°F18.9°C 59.3°F15.2°C 79% 2.0 mph SW3.2 kmh SW 4.5 mph7.2 kmh 29.70 in1005.8 mb 0.00 in0.0 mm 0.00 in0.0 mm 0.00 in0.0 mm
12:21 AM 66.0°F18.9°C 59.3°F15.2°C 79% 2.0 mph SW3.2 kmh SW 4.5 mph7.2 kmh 29.70 in1005.8 mb 0.00 in0.0 mm 0.00 in0.0 mm 0.00 in0.0 mm
12:17 AM 66.2°F19.0°C 59.1°F15.1°C 78% 1.5 mph SW2.4 kmh SW 3.8 mph6.1 kmh 29.70 in1005.8 mb 0.00 in0.0 mm 0.00 in0.0 mm 0.00 in0.0 mm
12:16 AM 66.2°F19.0°C 59.1°F15.1°C 78% 1.5 mph SW2.4 kmh SW 3.8 mph6.1 kmh 29.70 in1005.8 mb 0.00 in0.0 mm 0.00 in0.0 mm 0.00 in0.0 mm
12:12 AM 66.2°F19.0°C 59.1°F15.1°C 78% 2.0 mph SW3.2 kmh SW 3.8 mph6.1 kmh 29.70 in1005.8 mb 0.00 in0.0 mm 0.00 in0.0 mm 0.00 in0.0 mm
12:11 AM 66.2°F19.0°C 59.1°F15.1°C 78% 2.0 mph SW3.2 kmh SW 3.8 mph6.1 kmh 29.70 in1005.8 mb 0.00 in0.0 mm 0.00 in0.0 mm 0.00 in0.0 mm
12:07 AM 66.4°F19.1°C 58.9°F14.9°C 77% 2.2 mph SW3.5 kmh SW 3.8 mph6.1 kmh 29.70 in1005.8 mb 0.00 in0.0 mm 0.00 in0.0 mm 0.00 in0.0 mm
12:06 AM 66.4°F19.1°C 58.9°F14.9°C 77% 2.2 mph SW3.5 kmh SW 3.8 mph6.1 kmh 29.70 in1005.8 mb 0.00 in0.0 mm 0.00 in0.0 mm 0.00 in0.0 mm
12:02 AM 66.6°F19.2°C 59.1°F15.1°C 77% 2.2 mph SW3.5 kmh SW 3.8 mph6.1 kmh 29.70 in1005.8 mb 0.00 in0.0 mm 0.00 in0.0 mm 0.00 in0.0 mm
12:01 AM 66.6°F19.2°C 59.1°F15.1°C 77% 2.2 mph SW3.5 kmh SW 3.8 mph6.1 kmh 29.70 in1005.8 mb 0.00 in0.0 mm 0.00 in0.0 mm 0.00 in0.0 mm